ニューヨーク/JFK の空港の天気 - METARとTAF

ジョン・F・ケネディ国際空港 ( KJFK / JFK ) - アメリカ ニューヨーク州ニューヨーク
飛行場実況気象(Metar)
観測時間04/16 06:51 EDT (04/16 10:51 UTC)
風向・風速北北西 2m/s
視程10km以上
天気現象
少しの雲 雲底高度 700m
少しの雲 雲底高度 1830m
気温5℃
湿度86%
気圧1004.8hPa
METARKJFK 161051Z 33004KT 10SM FEW023 FEW060 05/03 A2967 RMK AO2 SLP048 T00500028
過去の天気等 Google飛行場航空写真 Wunderground天気予報

過去48時間のMETAR

飛行場予報(TAF)
発表時間: 4/16 04:30 EDT (4/16 08:30 UTC)
予報対象時間: 16日5時 EDT ~ 17日8時 EDT
風向・風速北北西 6m/s
視程10km以上
少しの雲 雲底高度 610m
全天の8割程度の雲 雲底高度 1830m
16日9時 EDT から
風向・風速西北西 8m/s 瞬間風速 12m/s
視程10km以上
全天の4割程度の雲 雲底高度 1070m
全天の8割程度の雲 雲底高度 1520m
16日15時 EDT から
風向・風速西北西 9m/s 瞬間風速 14m/s
視程10km以上
天気現象周辺でしゅう雨
全天の4割程度の雲 雲底高度 760m
全天の8割程度の雲 雲底高度 1220m
全天の8割程度の雲 雲底高度 3050m
16日21時 EDT から
風向・風速北西 7m/s 瞬間風速 12m/s
視程10km以上
全天の8割程度の雲 雲底高度 1220m
全天の8割程度の雲 雲底高度 3050m
17日2時 EDT から
風向・風速北西 7m/s
視程10km以上
全天の4割程度の雲 雲底高度 1220m
全天の8割程度の雲 雲底高度 3050m
KJFK 160830Z 1609/1712 33011KT P6SM FEW020 BKN060
FM161300 29015G23KT P6SM SCT035 BKN050
FM161900 29017G27KT P6SM VCSH SCT025 BKN040 BKN100
FM170100 32014G23KT P6SM BKN040 BKN100
FM170600 32013KT P6SM SCT040 BKN100